KMTN

Martin State Airport

Baltimore, Maryland, USA
KMTN 222320Z 2300/2324 13008KT P6SM SCT100 OVC200 FM230700 14010KT P6SM VCSH BKN025 OVC050 WS020/20045KT FM230900 15012G20KT 2SM -SHRA BR BKN008 OVC015 WS020/20050KT FM231500 19012G24KT P6SM BKN025 OVC050 FM231800 24015G25KT P6SM SCT050 AMD NOT SKED 2302/2312
Issued Valid From Valid To
Jan-22 @ 23:20 UTC
(2 hours ago)
Jan-23 @ 00:00 UTC
(2 hours ago)
Jan-24 @ 00:00 UTC
(in 22 hours)
Jan-23 @ 00:00 -Jan-23 @ 07:00
Wind Visibility Clouds
130° at 8 knots Greater than 6 miles
  • Scattered at 10,000' AGL
  • Overcast at 20,000' AGL
From Jan-23 @ 07:00 -Jan-23 @ 09:00
Wind Visibility Clouds
140° at 10 knots Greater than 6 miles
  • Broken at 2,500' AGL
  • Overcast at 5,000' AGL
From Jan-23 @ 09:00 -Jan-23 @ 15:00
Wind Visibility Clouds Conditions
150° at 12 knots
 Gusting to 20 knots
2 miles
  • Broken at 800' AGL
  • Overcast at 1,500' AGL
  • Light Rain
  • Mist
From Jan-23 @ 15:00 -Jan-23 @ 18:00
Wind Visibility Clouds
190° at 12 knots
 Gusting to 24 knots
Greater than 6 miles
  • Broken at 2,500' AGL
  • Overcast at 5,000' AGL
From Jan-23 @ 18:00 -Jan-24 @ 00:00
Wind Visibility Clouds
240° at 15 knots
 Gusting to 25 knots
Greater than 6 miles
  • Scattered at 5,000' AGL
KMTN 222320Z 2300/2324 13008KT P6SM SCT100 OVC200 FM230700 14010KT P6SM VCSH BKN025 OVC050 WS020/20045KT FM230900 15012G20KT 2SM -SHRA BR BKN008 OVC015 WS020/20050KT FM231500 19012G24KT P6SM BKN025 OVC050 FM231800 24015G25KT P6SM SCT050 AMD NOT SKED 2302/2312
Issued Jan-22 @ 23:20 UTC
(2 hours ago)
Valid From Jan-23 @ 00:00 UTC
(2 hours ago)
Valid To Jan-24 @ 00:00 UTC
(in 22 hours)
Jan-23 @ 00:00 - Jan-23 @ 07:00
Wind Visibility
130° at 8 knots Greater than 6 miles
Clouds
  • Scattered at 10,000' AGL
  • Overcast at 20,000' AGL
From Jan-23 @ 07:00 - Jan-23 @ 09:00
Wind Visibility
140° at 10 knots Greater than 6 miles
Clouds
  • Broken at 2,500' AGL
  • Overcast at 5,000' AGL
From Jan-23 @ 09:00 - Jan-23 @ 15:00
Wind Visibility
150° at 12 knots
 Gusting to 20 knots
2 miles
Clouds
  • Broken at 800' AGL
  • Overcast at 1,500' AGL
Conditions
  • Light Rain
  • Mist
From Jan-23 @ 15:00 - Jan-23 @ 18:00
Wind Visibility
190° at 12 knots
 Gusting to 24 knots
Greater than 6 miles
Clouds
  • Broken at 2,500' AGL
  • Overcast at 5,000' AGL
From Jan-23 @ 18:00 - Jan-24 @ 00:00
Wind Visibility
240° at 15 knots
 Gusting to 25 knots
Greater than 6 miles
Clouds
  • Scattered at 5,000' AGL